x

Long Key, Fl (lonf1) Weather Station

6:00pm - Fri 1st Aug 2014 All times are CDT. -4 hours from GMT.

  • Wind
    1mph, 2mph gusts
  • Sea Temp 92°f
  • Air Temp 88°f
  • Sea Pressure 1013.9mb
  • Long Key, Fl
  • Long Key, Fl

More Historic Weather Station data

Upgrade to MSW Pro to gain access to the past 30 days of data for over 8000 Wavebouys and Weather Stations around the globe.

Join Pro

Comparision Forecast

View Surf forecast
   
Fri 08/01 6:00pm 1 2 mph 1013.9mb 92f 88f
5:00pm  -  1 mph 1014.4mb 92f 89f
4:00pm  -  mph 1014.7mb 92f 89f
3:00pm  -  mph 1015.1mb 91f 88f
2:00pm 2 3 mph 1015.8mb 91f 88f
1:00pm 7 8 mph 1016.1mb 90f 87f
12:00pm 2 6 mph 1016.3mb 90f 87f
11:00am 7 9 mph 1016.2mb 89f 86f
10:00am 9 10 mph 1015.9mb 89f 86f
9:00am 9 11 mph 1015.5mb 89f 87f
8:00am 10 11 mph 1015.3mb 89f 85f
7:00am 10 11 mph 1014.9mb 89f 85f
6:00am 10 11 mph 1014.4mb 90f 85f
5:00am 11 13 mph 1014.2mb 90f 85f
4:00am 13
mph
1014.5mb 90f 85f
3:00am 9 11 mph 1015mb 91f 84f
2:00am 14 16 mph 1016mb 91f 84f
1:00am 8 9 mph 1016.3mb 91f 85f
12:00am 9 10 mph 1016.7mb 91f 85f
Thu 07/31 11:00pm 7 9 mph 1016.9mb 91f 85f
10:00pm 7 9 mph 1016.5mb 91f 84f
9:00pm 3 5 mph 1016.4mb 91f 86f
8:00pm  -  1 mph 1016.6mb 92f 86f
7:00pm 2 3 mph 1015.6mb 92f 88f
6:00pm 3 5 mph 1015.7mb 92f 89f
5:00pm 5 6 mph 1015.3mb 92f 87f
4:00pm 5 6 mph 1015.5mb 92f 87f
3:00pm 2 6 mph 1016.1mb 91f 87f
2:00pm 7 8 mph 1016.5mb 91f 86f
1:00pm 3 6 mph 1016.7mb 90f 86f
12:00pm 6 7 mph 1016.8mb 89f 86f
11:00am 8 9 mph 1017.1mb 89f 86f
10:00am 8 10 mph 1016.7mb 89f 86f
9:00am 8 10 mph 1016.2mb 89f 86f
8:00am 9 11 mph 1015.9mb 89f 85f
7:00am 9 10 mph 1015.6mb 89f 85f
6:00am 9 10 mph 1015.4mb 89f 85f
5:00am 8 10 mph 1015.3mb 90f 85f
4:00am 7 8 mph 1015.4mb 90f 84f
3:00am 13 14 mph 1015.7mb 90f 83f
2:00am 20 23 mph 1016.5mb 91f 80f
1:00am 7 8 mph 1016.9mb 91f 81f
12:00am 13 15 mph 1017.1mb 91f 80f
Wed 07/30 11:00pm 25 29 mph 1016.5mb 91f 80f
10:00pm 6 8 mph 1016.1mb 91f 86f
9:00pm 7 9 mph 1015.8mb 92f 87f
8:00pm 8
mph
1015.8mb 92f 87f
7:00pm 10 14 mph 1015.5mb 92f 88f
6:00pm 7 9 mph 1015.6mb 92f 87f
5:00pm 10 13 mph 1015.3mb 92f 87f
4:00pm 8 9 mph 1015.5mb 92f 87f
3:00pm 6 8 mph 1016.2mb 92f 87f
2:00pm 9 11 mph 1016.6mb 91f 87f
1:00pm 7 8 mph 1017.2mb 91f 87f
12:00pm 6 7 mph 1017.2mb 90f 87f
11:00am 6 7 mph 1017.6mb 89f 86f
10:00am 8 9 mph 1017.4mb 89f 86f
9:00am 8 10 mph 1017mb 89f 86f
8:00am 6 7 mph 1016.5mb 89f 82f
7:00am 8 9 mph 1016.3mb 89f 85f
6:00am 8 9 mph 1015.8mb 90f 86f
5:00am 10 11 mph 1015.8mb 90f 86f
4:00am 11 14 mph 1016mb 91f 86f
3:00am 9 11 mph 1016.3mb 91f 87f
2:00am 9 10 mph 1016.4mb 91f 87f
1:00am 7 8 mph 1016.7mb 91f 87f
12:00am 7 8 mph 1016.9mb 91f 87f
Tue 07/29 11:00pm 9 10 mph 1016.9mb 91f 87f
10:00pm 11 13 mph 1016.8mb 91f 87f
9:00pm 15 17 mph 1016.7mb 91f 87f
8:00pm 13 14 mph 1016.6mb 92f 87f
7:00pm 14 15 mph 1016.5mb 92f 87f
6:00pm 13 14 mph 1016.5mb 92f 87f
5:00pm 11 14 mph 1016.5mb 93f 88f
4:00pm 8 9 mph 1016.6mb 93f 87f
3:00pm 9 11 mph 1017.2mb 93f 87f
2:00pm 13 14 mph 1017.7mb 92f 87f
1:00pm 11 14 mph 1018.2mb 92f 87f
12:00pm 10 11 mph 1018.2mb 91f 87f
11:00am 9 10 mph 1018.1mb 91f 86f
10:00am 8 9 mph 1017.5mb 90f 86f
9:00am 10 13 mph 1017.1mb 90f 86f
8:00am 8 9 mph 1016.7mb 90f 85f
7:00am 9 10 mph 1016.6mb 90f 85f
6:00am 11 13 mph 1016.3mb 90f 85f
5:00am 9 13 mph 1016.2mb 90f 85f
4:00am 10 11 mph 1016.6mb 91f 85f
3:00am 7 8 mph 1017.3mb 91f 86f
2:00am 8 9 mph 1017.9mb 92f 86f
1:00am 3 5 mph 1018.4mb 92f 86f
12:00am 3 5 mph 1018.5mb 92f 86f